createdAt,value
2022-08-29T00:01:28.580Z,101273.28
2022-08-29T00:03:56.209Z,101267.03
2022-08-29T00:06:25.093Z,101267.03
2022-08-29T00:08:52.523Z,101273.28
2022-08-29T00:11:20.026Z,101271.59
2022-08-29T00:13:47.455Z,101269.06
2022-08-29T00:16:15.083Z,101278.81
2022-08-29T00:18:42.910Z,101278.81
2022-08-29T00:21:10.331Z,101276.97
2022-08-29T00:23:39.528Z,101275.28
2022-08-29T00:26:07.179Z,101278.81
2022-08-29T00:28:34.624Z,101277.97
2022-08-29T00:31:02.417Z,101272.59
2022-08-29T00:33:29.847Z,101273.59
2022-08-29T00:35:57.277Z,101271.91
2022-08-29T00:38:27.597Z,101271.91
2022-08-29T00:40:57.538Z,101272.94
2022-08-29T00:43:25.907Z,101271.09
2022-08-29T00:45:58.332Z,101266.53
2022-08-29T00:48:25.826Z,101270.25
2022-08-29T00:50:54.808Z,101276.47
2022-08-29T00:53:30.216Z,101273.94
2022-08-29T00:55:58.923Z,101273.94
2022-08-29T00:58:27.704Z,101270.25
2022-08-29T01:00:55.264Z,101275.63
2022-08-29T01:03:22.739Z,101273.09
2022-08-29T01:05:50.166Z,101276.63
2022-08-29T01:08:17.594Z,101272.28
2022-08-29T01:11:02.732Z,101270.56
2022-08-29T01:16:25.751Z,101280.34
2022-08-29T01:18:54.628Z,101284.84
2022-08-29T01:21:23.843Z,101280.50
2022-08-29T01:23:53.217Z,101290.41
2022-08-29T01:26:22.936Z,101286.72
2022-08-29T01:28:52.132Z,101290.41
2022-08-29T01:31:37.666Z,101285.88
2022-08-29T01:34:09.598Z,101295.78
2022-08-29T01:36:39.241Z,101299.50
2022-08-29T01:39:06.781Z,101297.81
2022-08-29T01:41:35.604Z,101302.19
2022-08-29T01:44:08.321Z,101306.53
2022-08-29T01:46:35.816Z,101303.19
2022-08-29T01:49:03.610Z,101304.88
2022-08-29T01:51:31.665Z,101302.34
2022-08-29T01:53:59.141Z,101298.81
2022-08-29T01:56:27.916Z,101301.50
2022-08-29T01:58:56.679Z,101306.91
2022-08-29T02:01:25.412Z,101300.66
2022-08-29T02:03:53.025Z,101297.13
2022-08-29T02:06:20.476Z,101304.19
2022-08-29T02:08:48.131Z,101303.50
2022-08-29T02:11:17.873Z,101311.41
2022-08-29T02:13:46.367Z,101304.38
2022-08-29T02:16:15.337Z,101305.19
2022-08-29T02:18:43.079Z,101299.00
2022-08-29T02:21:10.576Z,101290.19
2022-08-29T02:23:38.177Z,101299.00
2022-08-29T02:26:05.831Z,101292.88
2022-08-29T02:28:33.390Z,101307.19
2022-08-29T02:31:00.863Z,101303.50
2022-08-29T02:33:29.591Z,101300.13
2022-08-29T02:35:59.311Z,101299.28
2022-08-29T02:38:26.856Z,101295.56
2022-08-29T02:40:54.289Z,101300.13
2022-08-29T02:43:21.736Z,101294.06
2022-08-29T02:45:49.185Z,101294.91
2022-08-29T02:48:16.794Z,101295.75
2022-08-29T02:50:46.448Z,101290.53
2022-08-29T02:53:14.546Z,101302.13
2022-08-29T02:55:42.013Z,101302.97
2022-08-29T02:58:09.468Z,101299.44
2022-08-29T03:00:37.011Z,101304.81
2022-08-29T03:03:04.890Z,101293.41
2022-08-29T03:05:34.860Z,101300.44
2022-08-29T03:08:05.091Z,101303.13
2022-08-29T03:10:32.529Z,101297.75
2022-08-29T03:12:59.987Z,101303.13
2022-08-29T03:15:27.653Z,101302.28
2022-08-29T03:17:55.104Z,101299.59
2022-08-29T03:20:23.988Z,101302.47
2022-08-29T03:22:51.452Z,101304.16
2022-08-29T03:25:20.869Z,101302.47
2022-08-29T03:27:48.359Z,101297.06
2022-08-29T03:30:16.407Z,101302.47
2022-08-29T03:32:43.860Z,101297.06
2022-08-29T03:35:11.981Z,101295.41
2022-08-29T03:37:40.044Z,101290.03
2022-08-29T03:40:08.918Z,101290.03
2022-08-29T03:42:37.709Z,101293.72
2022-08-29T03:45:05.313Z,101292.88
2022-08-29T03:47:32.776Z,101286.66
2022-08-29T03:50:00.221Z,101292.88
2022-08-29T03:52:27.683Z,101293.06
2022-08-29T03:54:55.124Z,101286.66
2022-08-29T03:57:22.561Z,101295.75
2022-08-29T03:59:54.099Z,101287.66
2022-08-29T04:02:21.785Z,101291.19
2022-08-29T04:05:08.204Z,101295.75
2022-08-29T04:07:39.397Z,101296.72
2022-08-29T04:10:08.189Z,101292.19
2022-08-29T04:12:35.644Z,101293.22
2022-08-29T04:15:05.834Z,101293.22
2022-08-29T04:17:33.298Z,101296.72
2022-08-29T04:20:00.758Z,101290.34
2022-08-29T04:22:28.239Z,101293.22
2022-08-29T04:24:56.190Z,101287.16
2022-08-29T04:27:23.628Z,101301.44
2022-08-29T04:29:51.092Z,101301.44
2022-08-29T04:32:19.874Z,101296.91
2022-08-29T04:34:47.324Z,101298.75
2022-08-29T04:37:14.891Z,101294.22
2022-08-29T04:39:43.215Z,101298.75
2022-08-29T04:42:13.663Z,101301.44
2022-08-29T04:44:42.567Z,101306.00
2022-08-29T04:47:10.005Z,101304.13
2022-08-29T04:49:38.732Z,101306.66
2022-08-29T04:52:06.181Z,101304.81
2022-08-29T04:54:33.621Z,101311.00
2022-08-29T04:57:03.226Z,101315.38
2022-08-29T04:59:32.488Z,101311.00
2022-08-29T05:02:00.840Z,101310.19
2022-08-29T05:04:28.384Z,101315.56
2022-08-29T05:06:57.108Z,101313.03
2022-08-29T05:09:24.542Z,101315.88
2022-08-29T05:11:51.959Z,101315.88
2022-08-29T05:14:19.412Z,101320.25
2022-08-29T05:16:48.241Z,101328.31
2022-08-29T05:19:16.972Z,101332.00
2022-08-29T05:21:44.498Z,101332.00
2022-08-29T05:24:13.415Z,101326.63
2022-08-29T05:26:42.147Z,101333.72
2022-08-29T05:29:11.585Z,101329.47
2022-08-29T05:31:40.986Z,101334.03
2022-08-29T05:34:14.073Z,101345.63
2022-08-29T05:36:56.481Z,101339.41
2022-08-29T05:39:25.227Z,101338.56
2022-08-29T05:41:55.447Z,101345.81
2022-08-29T05:44:22.907Z,101349.31
2022-08-29T05:46:50.364Z,101353.88
2022-08-29T05:49:17.802Z,101354.69
2022-08-29T05:51:45.243Z,101352.00
2022-08-29T05:54:12.685Z,101357.38
2022-08-29T05:56:42.856Z,101350.31
2022-08-29T05:59:11.447Z,101353.00
2022-08-29T06:01:40.086Z,101349.47
2022-08-29T06:04:07.633Z,101350.47
2022-08-29T06:06:35.126Z,101344.78
2022-08-29T06:09:02.589Z,101351.19
2022-08-29T06:11:31.192Z,101345.09
2022-08-29T06:14:00.587Z,101348.06
2022-08-29T06:16:28.637Z,101346.00
2022-08-29T06:18:56.161Z,101350.88
2022-08-29T06:21:23.630Z,101347.66
2022-08-29T06:23:51.074Z,101349.69
2022-08-29T06:26:19.588Z,101355.22
2022-08-29T06:28:47.051Z,101358.06
2022-08-29T06:31:16.955Z,101359.25
2022-08-29T06:33:44.475Z,101359.56
2022-08-29T06:36:11.947Z,101356.03
2022-08-29T06:38:39.387Z,101355.31
2022-08-29T06:41:07.908Z,101355.31
2022-08-29T06:43:35.420Z,101354.63
2022-08-29T06:46:03.011Z,101359.03
2022-08-29T06:48:31.787Z,101369.91
2022-08-29T06:51:01.449Z,101371.75
2022-08-29T06:53:31.972Z,101376.09
2022-08-29T06:56:04.635Z,101378.13
2022-08-29T06:58:32.862Z,101372.53
2022-08-29T07:01:00.378Z,101375.22
2022-08-29T07:03:27.838Z,101373.72
2022-08-29T07:05:56.567Z,101373.66
2022-08-29T07:08:24.784Z,101379.69
2022-08-29T07:10:52.250Z,101379.03
2022-08-29T07:13:20.881Z,101384.41
2022-08-29T07:15:48.562Z,101392.38
2022-08-29T07:18:16.236Z,101394.41
2022-08-29T07:20:43.843Z,101396.78
2022-08-29T07:23:12.552Z,101386.72
2022-08-29T07:25:39.975Z,101399.47
2022-08-29T07:28:07.450Z,101394.75
2022-08-29T07:30:35.404Z,101402.75
2022-08-29T07:33:02.874Z,101403.72
2022-08-29T07:35:30.936Z,101399.03
2022-08-29T07:37:58.623Z,101413.34
2022-08-29T07:40:27.382Z,101412.50
2022-08-29T07:42:54.876Z,101407.16
2022-08-29T07:45:22.423Z,101401.94
2022-08-29T07:47:49.928Z,101405.44
2022-08-29T07:50:17.768Z,101404.75
2022-08-29T07:52:45.203Z,101413.75
2022-08-29T07:55:12.764Z,101418.56
2022-08-29T07:57:41.619Z,101424.13
2022-08-29T08:00:10.949Z,101420.28
2022-08-29T08:02:41.327Z,101423.34
2022-08-29T08:05:09.558Z,101425.88
2022-08-29T08:07:40.173Z,101426.84
2022-08-29T08:10:08.872Z,101423.94
2022-08-29T08:12:36.339Z,101433.84
2022-08-29T08:15:05.945Z,101425.09
2022-08-29T08:17:33.448Z,101429.72
2022-08-29T08:20:00.920Z,101428.72
2022-08-29T08:22:28.377Z,101426.19
2022-08-29T08:24:55.897Z,101427.72
2022-08-29T08:27:23.545Z,101431.72
2022-08-29T08:29:51.093Z,101435.47
2022-08-29T08:32:20.530Z,101442.19
2022-08-29T08:34:47.970Z,101446.28
2022-08-29T08:37:19.423Z,101442.72
2022-08-29T08:39:56.950Z,101445.59
2022-08-29T08:42:29.656Z,101445.28
2022-08-29T08:45:07.987Z,101437.53
2022-08-29T08:47:40.196Z,101442.91
2022-08-29T08:50:12.320Z,101443.91
2022-08-29T08:52:42.695Z,101442.38
2022-08-29T08:55:14.948Z,101434.63
2022-08-29T08:57:45.054Z,101449.09
2022-08-29T09:00:13.398Z,101445.81
2022-08-29T09:02:49.008Z,101446.19
2022-08-29T09:05:25.337Z,101451.88
2022-08-29T09:07:54.217Z,101445.81
2022-08-29T09:10:28.905Z,101453.72
2022-08-29T09:12:59.915Z,101451.72
2022-08-29T09:15:32.958Z,101456.63
2022-08-29T09:18:03.092Z,101462.75
2022-08-29T09:20:31.546Z,101449.81
2022-08-29T09:23:00.607Z,101449.09
2022-08-29T09:25:29.152Z,101454.91
2022-08-29T09:27:58.189Z,101457.44
2022-08-29T09:30:28.344Z,101450.38
2022-08-29T09:32:58.337Z,101448.38
2022-08-29T09:35:29.114Z,101457.16
2022-08-29T09:37:58.521Z,101445.03
2022-08-29T09:40:26.038Z,101444.03
2022-08-29T09:43:03.055Z,101444.19
2022-08-29T09:45:30.561Z,101442.25
2022-08-29T09:48:09.245Z,101441.50
2022-08-29T09:50:38.166Z,101437.75
2022-08-29T09:53:08.096Z,101438.50
2022-08-29T09:55:45.584Z,101446.94
2022-08-29T09:58:28.701Z,101437.09
2022-08-29T10:01:00.384Z,101437.84
2022-08-29T10:03:27.843Z,101443.66
2022-08-29T10:06:07.538Z,101461.13
2022-08-29T10:08:36.260Z,101456.59
2022-08-29T10:11:04.817Z,101450.34
2022-08-29T10:13:36.550Z,101454.91
2022-08-29T10:16:10.870Z,101452.88
2022-08-29T10:18:42.962Z,101458.25
2022-08-29T10:21:17.669Z,101457.38
2022-08-29T10:23:52.928Z,101458.84
2022-08-29T10:26:27.363Z,101455.41
2022-08-29T10:28:57.462Z,101462.09
2022-08-29T10:31:28.220Z,101453.91
2022-08-29T10:34:01.783Z,101460.72
2022-08-29T10:36:32.953Z,101462.69
2022-08-29T10:39:02.760Z,101462.16
2022-08-29T10:41:33.693Z,101460.78
2022-08-29T10:44:07.343Z,101468.94
2022-08-29T10:46:44.052Z,101459.03
2022-08-29T10:49:14.044Z,101454.81
2022-08-29T10:51:46.774Z,101457.88
2022-08-29T10:54:17.487Z,101462.88
2022-08-29T10:56:45.959Z,101461.56
2022-08-29T10:59:18.184Z,101467.47
2022-08-29T11:01:48.301Z,101465.50
2022-08-29T11:04:18.291Z,101457.75
2022-08-29T11:06:51.459Z,101453.66
2022-08-29T11:09:20.354Z,101454.06
2022-08-29T11:11:55.183Z,101450.69
2022-08-29T11:14:24.594Z,101451.84
2022-08-29T11:16:52.514Z,101454.06
2022-08-29T11:19:22.769Z,101446.47
2022-08-29T11:21:56.578Z,101446.53
2022-08-29T11:24:24.347Z,101450.25
2022-08-29T11:26:54.967Z,101438.06
2022-08-29T11:29:27.493Z,101450.13
2022-08-29T11:31:57.691Z,101445.53
2022-08-29T11:34:33.323Z,101447.19
2022-08-29T11:37:36.405Z,101450.34
2022-08-29T11:40:07.564Z,101452.50
2022-08-29T11:42:52.391Z,101442.59
2022-08-29T11:45:24.723Z,101454.84
2022-08-29T11:48:01.597Z,101453.38
2022-08-29T11:50:30.917Z,101451.75
2022-08-29T11:53:06.575Z,101454.38
2022-08-29T11:55:35.727Z,101462.75
2022-08-29T11:58:11.444Z,101462.81
2022-08-29T12:00:51.161Z,101457.53
2022-08-29T12:03:56.599Z,101455.41
2022-08-29T12:06:39.373Z,101455.50
2022-08-29T12:09:33.987Z,101449.56
2022-08-29T12:12:36.803Z,101442.69
2022-08-29T12:15:21.518Z,101443.81
2022-08-29T12:18:02.100Z,101434.41
2022-08-29T12:20:41.111Z,101432.69
2022-08-29T12:23:18.358Z,101439.25
2022-08-29T12:26:03.733Z,101436.69
2022-08-29T12:28:45.066Z,101437.63
2022-08-29T12:32:02.111Z,101428.50
2022-08-29T12:34:47.585Z,101437.78
2022-08-29T12:37:28.596Z,101430.63
2022-08-29T12:40:22.398Z,101425.66
2022-08-29T12:43:00.632Z,101428.25
2022-08-29T12:45:28.116Z,101431.84
2022-08-29T12:47:57.849Z,101428.69
2022-08-29T12:50:26.729Z,101432.94
2022-08-29T12:53:02.083Z,101419.50
2022-08-29T12:55:33.749Z,101425.72
2022-08-29T12:58:02.594Z,101422.97
2022-08-29T13:00:32.306Z,101426.16
2022-08-29T13:03:01.998Z,101413.28
2022-08-29T13:05:30.180Z,101421.31
2022-08-29T13:07:59.352Z,101423.88
2022-08-29T13:10:26.799Z,101421.56
2022-08-29T13:12:56.729Z,101427.44
2022-08-29T13:18:06.766Z,101421.47
2022-08-29T13:20:45.804Z,101423.56
2022-08-29T13:23:16.982Z,101419.13
2022-08-29T13:25:46.382Z,101415.75
2022-08-29T13:28:15.595Z,101425.19
2022-08-29T13:30:43.184Z,101415.06
2022-08-29T13:33:34.943Z,101416.75
2022-08-29T13:36:32.268Z,101410.38
2022-08-29T13:39:27.980Z,101410.38
2022-08-29T13:42:17.329Z,101405.00
2022-08-29T13:45:24.196Z,101417.34
2022-08-29T13:48:00.619Z,101406.84
2022-08-29T13:50:29.387Z,101403.97
2022-08-29T13:52:57.339Z,101395.34
2022-08-29T13:55:24.942Z,101397.16
2022-08-29T13:57:53.595Z,101395.66
2022-08-29T14:00:22.781Z,101393.34
2022-08-29T14:03:01.239Z,101396.28
2022-08-29T14:05:30.141Z,101389.91
2022-08-29T14:07:57.593Z,101395.88
2022-08-29T14:10:25.023Z,101386.59
2022-08-29T14:12:52.449Z,101394.19
2022-08-29T14:15:21.009Z,101388.50
2022-08-29T14:17:48.634Z,101380.97
2022-08-29T14:20:17.459Z,101395.00
2022-08-29T14:22:46.889Z,101396.19
2022-08-29T14:25:15.156Z,101395.66
2022-08-29T14:27:43.434Z,101376.06
2022-08-29T14:30:12.111Z,101381.97
2022-08-29T14:32:39.529Z,101380.97
2022-08-29T14:35:07.539Z,101377.66
2022-08-29T14:37:35.023Z,101379.75
2022-08-29T14:40:05.188Z,101385.06
2022-08-29T14:42:32.798Z,101381.66
2022-08-29T14:45:00.246Z,101379.28
2022-08-29T14:47:27.703Z,101381.66
2022-08-29T14:49:55.198Z,101377.97
2022-08-29T14:52:22.694Z,101376.97
2022-08-29T14:54:50.123Z,101374.19
2022-08-29T14:57:18.857Z,101368.19
2022-08-29T14:59:47.987Z,101366.31
2022-08-29T15:02:15.584Z,101365.34
2022-08-29T15:04:43.119Z,101372.38
2022-08-29T15:07:11.811Z,101369.53
2022-08-29T15:09:39.474Z,101368.03
2022-08-29T15:12:07.259Z,101368.19
2022-08-29T15:14:36.004Z,101364.41
2022-08-29T15:17:03.456Z,101359.03
2022-08-29T15:20:15.832Z,101367.78
2022-08-29T15:22:18.298Z,101359.03
2022-08-29T15:24:45.740Z,101361.84
2022-08-29T15:27:13.164Z,101368.34
2022-08-29T15:29:41.979Z,101352.44
2022-08-29T15:32:09.467Z,101346.72
2022-08-29T15:34:36.984Z,101346.88
2022-08-29T15:37:04.536Z,101346.03
2022-08-29T15:39:32.010Z,101355.13
2022-08-29T15:42:00.780Z,101355.28
2022-08-29T15:44:28.396Z,101355.44
2022-08-29T15:46:57.275Z,101351.72
2022-08-29T15:49:25.222Z,101359.31
2022-08-29T15:51:53.141Z,101354.19
2022-08-29T15:54:20.757Z,101350.81
2022-08-29T15:56:48.243Z,101353.19
2022-08-29T15:59:15.796Z,101350.69
2022-08-29T16:01:44.522Z,101338.56
2022-08-29T16:04:13.487Z,101347.63
2022-08-29T16:06:41.032Z,101346.94
2022-08-29T16:09:14.851Z,101342.59
2022-08-29T16:11:43.412Z,101340.59
2022-08-29T16:14:41.404Z,101337.22
2022-08-29T16:16:58.234Z,101345.59
2022-08-29T16:19:26.943Z,101351.09
2022-08-29T16:21:59.713Z,101349.25
2022-08-29T16:24:27.841Z,101350.25
2022-08-29T16:26:55.352Z,101349.25
2022-08-29T16:29:26.646Z,101356.47
2022-08-29T16:31:54.776Z,101341.50
2022-08-29T16:34:26.694Z,101353.25
2022-08-29T16:36:56.073Z,101351.41
2022-08-29T16:39:23.496Z,101355.13
2022-08-29T16:41:51.045Z,101349.03
2022-08-29T16:44:18.485Z,101345.53
2022-08-29T16:46:45.912Z,101352.59
2022-08-29T16:49:13.340Z,101349.75
2022-08-29T16:51:42.053Z,101350.88
2022-08-29T16:54:09.472Z,101347.38
2022-08-29T16:56:36.907Z,101346.53
2022-08-29T16:59:04.500Z,101347.53
2022-08-29T17:01:33.246Z,101338.78
2022-08-29T17:04:01.408Z,101344.84
2022-08-29T17:06:29.239Z,101337.94
2022-08-29T17:08:57.193Z,101342.47
2022-08-29T17:11:23.793Z,101340.81
2022-08-29T17:13:50.268Z,101335.44
2022-08-29T17:16:16.849Z,101336.25
2022-08-29T17:18:44.480Z,101347.00
2022-08-29T17:21:12.180Z,101342.63
2022-08-29T17:23:39.815Z,101343.66
2022-08-29T17:26:10.228Z,101342.63
2022-08-29T17:28:38.171Z,101347.16
2022-08-29T17:31:05.826Z,101343.66
2022-08-29T17:33:33.296Z,101343.81
2022-08-29T17:36:00.951Z,101346.50
2022-08-29T17:38:28.506Z,101348.31
2022-08-29T17:40:56.930Z,101349.16
2022-08-29T17:43:27.339Z,101348.31
2022-08-29T17:45:54.871Z,101343.97
2022-08-29T17:48:22.507Z,101342.09
2022-08-29T17:50:50.445Z,101342.25
2022-08-29T17:53:18.551Z,101342.25
2022-08-29T17:55:46.430Z,101345.09
2022-08-29T17:58:14.662Z,101341.44
2022-08-29T18:00:43.482Z,101347.78
2022-08-29T18:03:11.029Z,101351.34
2022-08-29T18:05:38.586Z,101347.63
2022-08-29T18:08:06.143Z,101349.47
2022-08-29T18:10:33.575Z,101352.16
2022-08-29T18:13:00.983Z,101357.53
2022-08-29T18:15:28.543Z,101364.75
2022-08-29T18:17:57.250Z,101365.59
2022-08-29T18:20:24.676Z,101366.59
2022-08-29T18:22:52.148Z,101373.66
2022-08-29T18:25:22.302Z,101366.59
2022-08-29T18:27:50.191Z,101371.13
2022-08-29T18:30:17.779Z,101378.34
2022-08-29T18:32:45.204Z,101383.72
2022-08-29T18:35:13.931Z,101381.03
2022-08-29T18:37:41.378Z,101390.91
2022-08-29T18:40:10.115Z,101384.69
2022-08-29T18:42:40.973Z,101387.38
2022-08-29T18:45:09.426Z,101383.03
2022-08-29T18:47:36.852Z,101388.41
2022-08-29T18:50:25.191Z,101387.38
2022-08-29T18:52:54.353Z,101398.97
2022-08-29T18:55:22.727Z,101395.44
2022-08-29T18:57:50.257Z,101394.63
2022-08-29T19:00:18.069Z,101399.16
2022-08-29T19:02:45.629Z,101401.66
2022-08-29T19:05:13.155Z,101405.34
2022-08-29T19:07:40.680Z,101409.88
2022-08-29T19:10:10.465Z,101409.72
2022-08-29T19:12:38.066Z,101408.88
2022-08-29T19:15:08.111Z,101413.41
2022-08-29T19:17:35.623Z,101413.56
2022-08-29T19:20:27.111Z,101417.94
2022-08-29T19:22:55.029Z,101424.31
2022-08-29T19:25:23.786Z,101428.84
2022-08-29T19:27:51.229Z,101429.69
2022-08-29T19:30:18.844Z,101429.69
2022-08-29T19:32:46.374Z,101433.34
2022-08-29T19:35:13.849Z,101433.34
2022-08-29T19:37:41.559Z,101433.34
2022-08-29T19:40:10.300Z,101438.72
2022-08-29T19:42:39.266Z,101437.72
2022-08-29T19:45:08.136Z,101431.69
2022-08-29T19:47:35.769Z,101437.72
2022-08-29T19:50:03.420Z,101440.41
2022-08-29T19:52:31.473Z,101431.69
2022-08-29T19:55:00.443Z,101435.34
2022-08-29T19:57:28.784Z,101439.06
2022-08-29T19:59:57.597Z,101439.06
2022-08-29T20:02:26.660Z,101435.50
2022-08-29T20:04:54.170Z,101443.41
2022-08-29T20:07:21.610Z,101451.47
2022-08-29T20:09:49.926Z,101449.81
2022-08-29T20:12:17.428Z,101448.94
2022-08-29T20:14:44.968Z,101443.56
2022-08-29T20:17:13.866Z,101449.81
2022-08-29T20:19:41.373Z,101445.41
2022-08-29T20:22:08.832Z,101452.63
2022-08-29T20:24:36.297Z,101454.47
2022-08-29T20:27:03.812Z,101451.78
2022-08-29T20:29:31.925Z,101452.63
2022-08-29T20:31:59.543Z,101460.84
2022-08-29T20:34:29.721Z,101461.69
2022-08-29T20:37:14.117Z,101460.84
2022-08-29T20:39:42.792Z,101461.69
2022-08-29T20:42:10.264Z,101465.34
2022-08-29T20:44:38.570Z,101469.06
2022-08-29T20:47:06.667Z,101472.41
2022-08-29T20:49:35.973Z,101471.59
2022-08-29T20:52:03.868Z,101480.63
2022-08-29T20:54:31.368Z,101473.59
2022-08-29T20:56:58.866Z,101469.19
2022-08-29T20:59:26.912Z,101474.88
2022-08-29T21:01:55.349Z,101481.06
2022-08-29T21:04:40.610Z,101478.72
2022-08-29T21:07:11.015Z,101479.47
2022-08-29T21:09:40.236Z,101488.06
2022-08-29T21:12:08.077Z,101475.31
2022-08-29T21:14:35.518Z,101477.88
2022-08-29T21:17:02.986Z,101471.66
2022-08-29T21:19:30.504Z,101488.59
2022-08-29T21:21:58.239Z,101482.25
2022-08-29T21:24:27.006Z,101473.50
2022-08-29T21:26:54.433Z,101483.22
2022-08-29T21:29:21.874Z,101480.53
2022-08-29T21:31:49.417Z,101477.88
2022-08-29T21:34:17.035Z,101479.72
2022-08-29T21:36:44.706Z,101473.34
2022-08-29T21:39:12.736Z,101480.41
2022-08-29T21:41:48.316Z,101487.75
2022-08-29T21:44:16.215Z,101480.69
2022-08-29T21:46:45.664Z,101483.22
2022-08-29T21:49:15.132Z,101478.19
2022-08-29T21:51:42.566Z,101485.38
2022-08-29T21:54:13.363Z,101483.88
2022-08-29T21:56:41.147Z,101481.47
2022-08-29T21:59:10.093Z,101490.53
2022-08-29T22:01:39.320Z,101491.69
2022-08-29T22:04:07.991Z,101497.19
2022-08-29T22:06:36.482Z,101503.41
2022-08-29T22:09:04.095Z,101500.03
2022-08-29T22:11:37.491Z,101509.94
2022-08-29T22:14:05.967Z,101509.94
2022-08-29T22:16:33.890Z,101516.28
2022-08-29T22:19:02.580Z,101515.59
2022-08-29T22:21:31.353Z,101512.09
2022-08-29T22:23:58.917Z,101519.44
2022-08-29T22:26:26.420Z,101520.44
2022-08-29T22:28:53.849Z,101524.25
2022-08-29T22:31:21.323Z,101519.59
2022-08-29T22:33:50.125Z,101522.28
2022-08-29T22:36:17.752Z,101520.72
2022-08-29T22:38:45.418Z,101524.25
2022-08-29T22:41:13.322Z,101529.91
2022-08-29T22:43:40.739Z,101528.91
2022-08-29T22:46:12.479Z,101521.88
2022-08-29T22:48:40.324Z,101517.31
2022-08-29T22:51:16.494Z,101515.47
2022-08-29T22:54:04.019Z,101511.13
2022-08-29T22:56:32.353Z,101507.72
2022-08-29T22:59:00.324Z,101505.47
2022-08-29T23:01:27.801Z,101508.53
2022-08-29T23:03:55.706Z,101516.69
2022-08-29T23:06:24.571Z,101515.69
2022-08-29T23:08:52.140Z,101516.22
2022-08-29T23:11:19.567Z,101522.13
2022-08-29T23:13:47.049Z,101517.75
2022-08-29T23:16:14.906Z,101520.13
2022-08-29T23:18:42.387Z,101517.31
2022-08-29T23:21:09.830Z,101519.16
2022-08-29T23:23:40.932Z,101519.16
2022-08-29T23:26:08.500Z,101518.84
2022-08-29T23:28:36.003Z,101514.91
2022-08-29T23:31:03.485Z,101520.28
2022-08-29T23:33:30.940Z,101521.16
2022-08-29T23:35:58.451Z,101513.53
2022-08-29T23:38:26.203Z,101515.22
2022-08-29T23:40:57.485Z,101510.72
2022-08-29T23:43:25.287Z,101504.47
2022-08-29T23:45:52.755Z,101501.97
2022-08-29T23:48:24.025Z,101495.59
2022-08-29T23:50:53.537Z,101501.97
2022-08-29T23:53:20.956Z,101503.09
2022-08-29T23:55:48.408Z,101507.63
2022-08-29T23:58:17.251Z,101495.88
